ADDS METAR Data INFO
IDs: Format: Raw Decoded Include TAF

Data at: 0749 UTC 26 Apr 2018

METAR for:KAXH (Houston/SW Arpt, TX, US)
Text:KAXH 260735Z AUTO 35009KT 10SM OVC055 17/12 A3002 RMK AO2 T01650119
Temperature: 16.5°C ( 62°F)
Dewpoint: 11.9°C ( 53°F) [RH = 74%]
Pressure (altimeter):30.02 inches Hg (1016.7 mb)
Winds:from the N (350 degrees) at 10 MPH (9 knots; 4.6 m/s)
Visibility:10 or more sm (16+ km)
Ceiling:5500 feet AGL
Clouds: overcast cloud deck at 5500 feet AGL
QC Flag:automated observation with no human augmentation

TAF for:KAXH (Houston/SW Arpt, TX, US)
Text:No data found